sensor_id;sensor_type;location;lat;lon;timestamp;temperature;humidity
12233;DHT22;6179;51.748;8.728;2023-04-28T00:04:08;9.30;72.30
12233;DHT22;6179;51.748;8.728;2023-04-28T00:10:09;9.50;72.50
12233;DHT22;6179;51.748;8.728;2023-04-28T00:16:10;9.30;73.00
12233;DHT22;6179;51.748;8.728;2023-04-28T00:22:11;9.40;72.90
12233;DHT22;6179;51.748;8.728;2023-04-28T00:28:11;9.50;74.00
12233;DHT22;6179;51.748;8.728;2023-04-28T00:34:12;9.40;73.80
12233;DHT22;6179;51.748;8.728;2023-04-28T00:40:14;9.50;73.50
12233;DHT22;6179;51.748;8.728;2023-04-28T00:46:24;9.40;73.90
12233;DHT22;6179;51.748;8.728;2023-04-28T00:52:27;9.30;74.60
12233;DHT22;6179;51.748;8.728;2023-04-28T00:58:28;9.40;74.30
12233;DHT22;6179;51.748;8.728;2023-04-28T01:04:30;9.40;74.00
12233;DHT22;6179;51.748;8.728;2023-04-28T01:10:30;9.50;75.50
12233;DHT22;6179;51.748;8.728;2023-04-28T01:16:32;9.30;75.60
12233;DHT22;6179;51.748;8.728;2023-04-28T01:22:33;9.30;75.30
12233;DHT22;6179;51.748;8.728;2023-04-28T01:28:34;9.20;76.40
12233;DHT22;6179;51.748;8.728;2023-04-28T01:34:35;9.30;76.30
12233;DHT22;6179;51.748;8.728;2023-04-28T01:40:35;9.20;76.80
12233;DHT22;6179;51.748;8.728;2023-04-28T01:46:36;9.40;76.70
12233;DHT22;6179;51.748;8.728;2023-04-28T01:52:37;9.30;77.10
12233;DHT22;6179;51.748;8.728;2023-04-28T01:58:37;9.40;75.90
12233;DHT22;6179;51.748;8.728;2023-04-28T02:04:38;9.40;76.60
12233;DHT22;6179;51.748;8.728;2023-04-28T02:10:39;9.40;76.90
12233;DHT22;6179;51.748;8.728;2023-04-28T02:16:39;9.60;76.20
12233;DHT22;6179;51.748;8.728;2023-04-28T02:22:40;9.30;77.60
12233;DHT22;6179;51.748;8.728;2023-04-28T02:28:41;9.60;77.00
12233;DHT22;6179;51.748;8.728;2023-04-28T02:34:41;9.50;77.50
12233;DHT22;6179;51.748;8.728;2023-04-28T02:40:42;9.50;76.80
12233;DHT22;6179;51.748;8.728;2023-04-28T02:46:42;9.60;76.90
12233;DHT22;6179;51.748;8.728;2023-04-28T02:52:43;9.50;77.40
12233;DHT22;6179;51.748;8.728;2023-04-28T02:58:44;9.60;77.60
12233;DHT22;6179;51.748;8.728;2023-04-28T03:04:44;9.70;76.80
12233;DHT22;6179;51.748;8.728;2023-04-28T03:10:45;9.60;77.50
12233;DHT22;6179;51.748;8.728;2023-04-28T03:16:46;9.80;77.10
12233;DHT22;6179;51.748;8.728;2023-04-28T03:22:46;10.20;75.50
12233;DHT22;6179;51.748;8.728;2023-04-28T03:28:47;10.00;76.60
12233;DHT22;6179;51.748;8.728;2023-04-28T03:34:48;9.80;77.10
12233;DHT22;6179;51.748;8.728;2023-04-28T03:40:48;9.60;77.90
12233;DHT22;6179;51.748;8.728;2023-04-28T03:46:49;9.70;77.60
12233;DHT22;6179;51.748;8.728;2023-04-28T03:52:50;9.80;78.10
12233;DHT22;6179;51.748;8.728;2023-04-28T03:58:50;9.60;79.10
12233;DHT22;6179;51.748;8.728;2023-04-28T04:04:53;9.60;78.20
12233;DHT22;6179;51.748;8.728;2023-04-28T04:10:54;10.00;77.50
12233;DHT22;6179;51.748;8.728;2023-04-28T04:16:55;10.10;77.80
12233;DHT22;6179;51.748;8.728;2023-04-28T04:22:55;10.00;78.10
12233;DHT22;6179;51.748;8.728;2023-04-28T04:28:56;10.00;78.60
12233;DHT22;6179;51.748;8.728;2023-04-28T04:34:57;10.40;77.70
12233;DHT22;6179;51.748;8.728;2023-04-28T04:40:57;10.40;80.00
12233;DHT22;6179;51.748;8.728;2023-04-28T04:46:58;10.70;82.10
12233;DHT22;6179;51.748;8.728;2023-04-28T04:52:59;10.80;82.00
12233;DHT22;6179;51.748;8.728;2023-04-28T04:59:02;10.80;85.60
12233;DHT22;6179;51.748;8.728;2023-04-28T05:05:03;10.60;87.70
12233;DHT22;6179;51.748;8.728;2023-04-28T05:11:04;10.00;89.00
12233;DHT22;6179;51.748;8.728;2023-04-28T05:17:04;9.80;88.50
12233;DHT22;6179;51.748;8.728;2023-04-28T05:23:05;9.80;88.20
12233;DHT22;6179;51.748;8.728;2023-04-28T05:29:06;10.00;87.80
12233;DHT22;6179;51.748;8.728;2023-04-28T05:35:07;9.60;90.30
12233;DHT22;6179;51.748;8.728;2023-04-28T05:41:08;9.50;90.00
12233;DHT22;6179;51.748;8.728;2023-04-28T05:47:08;9.70;91.40
12233;DHT22;6179;51.748;8.728;2023-04-28T05:53:09;9.80;90.70
12233;DHT22;6179;51.748;8.728;2023-04-28T05:59:10;9.90;92.30
12233;DHT22;6179;51.748;8.728;2023-04-28T06:05:10;10.00;90.80
12233;DHT22;6179;51.748;8.728;2023-04-28T06:11:11;10.10;92.70
12233;DHT22;6179;51.748;8.728;2023-04-28T06:17:12;10.30;92.50
12233;DHT22;6179;51.748;8.728;2023-04-28T06:23:12;10.70;90.90
12233;DHT22;6179;51.748;8.728;2023-04-28T06:29:13;10.70;92.80
12233;DHT22;6179;51.748;8.728;2023-04-28T06:35:15;10.70;93.90
12233;DHT22;6179;51.748;8.728;2023-04-28T06:41:15;10.80;96.00
12233;DHT22;6179;51.748;8.728;2023-04-28T06:47:16;11.00;96.00
12233;DHT22;6179;51.748;8.728;2023-04-28T06:53:17;10.60;98.00
12233;DHT22;6179;51.748;8.728;2023-04-28T06:59:17;10.80;98.00
12233;DHT22;6179;51.748;8.728;2023-04-28T07:05:18;11.30;98.10
12233;DHT22;6179;51.748;8.728;2023-04-28T07:11:18;11.00;96.60
12233;DHT22;6179;51.748;8.728;2023-04-28T07:17:19;11.20;96.30
12233;DHT22;6179;51.748;8.728;2023-04-28T07:23:19;11.20;96.20
12233;DHT22;6179;51.748;8.728;2023-04-28T07:29:20;11.40;95.80
12233;DHT22;6179;51.748;8.728;2023-04-28T07:35:21;11.80;94.10
12233;DHT22;6179;51.748;8.728;2023-04-28T07:41:22;11.80;94.40
12233;DHT22;6179;51.748;8.728;2023-04-28T07:47:23;11.90;94.60
12233;DHT22;6179;51.748;8.728;2023-04-28T07:53:24;12.50;95.20
12233;DHT22;6179;51.748;8.728;2023-04-28T07:59:25;12.70;92.30
12233;DHT22;6179;51.748;8.728;2023-04-28T08:05:26;12.80;90.70
12233;DHT22;6179;51.748;8.728;2023-04-28T08:11:27;13.00;93.30
12233;DHT22;6179;51.748;8.728;2023-04-28T08:17:27;12.80;91.50
12233;DHT22;6179;51.748;8.728;2023-04-28T08:23:28;12.90;91.90
12233;DHT22;6179;51.748;8.728;2023-04-28T08:29:31;12.90;92.00
12233;DHT22;6179;51.748;8.728;2023-04-28T08:35:32;13.10;91.10
12233;DHT22;6179;51.748;8.728;2023-04-28T08:41:39;13.20;90.80
12233;DHT22;6179;51.748;8.728;2023-04-28T08:47:41;13.10;91.70
12233;DHT22;6179;51.748;8.728;2023-04-28T08:53:49;13.30;91.60
12233;DHT22;6179;51.748;8.728;2023-04-28T08:59:53;12.70;94.00
12233;DHT22;6179;51.748;8.728;2023-04-28T09:05:53;13.20;92.50
12233;DHT22;6179;51.748;8.728;2023-04-28T09:11:59;13.20;93.10
12233;DHT22;6179;51.748;8.728;2023-04-28T09:18:04;12.80;93.30
12233;DHT22;6179;51.748;8.728;2023-04-28T09:24:06;12.40;95.30
12233;DHT22;6179;51.748;8.728;2023-04-28T09:30:07;12.40;97.10
12233;DHT22;6179;51.748;8.728;2023-04-28T09:36:09;12.70;97.00
12233;DHT22;6179;51.748;8.728;2023-04-28T09:42:10;12.70;96.40
12233;DHT22;6179;51.748;8.728;2023-04-28T09:48:10;12.40;98.30
12233;DHT22;6179;51.748;8.728;2023-04-28T09:54:11;12.40;98.30
12233;DHT22;6179;51.748;8.728;2023-04-28T10:00:12;12.70;98.30
12233;DHT22;6179;51.748;8.728;2023-04-28T10:06:14;12.80;98.10
12233;DHT22;6179;51.748;8.728;2023-04-28T10:12:19;13.40;96.70
12233;DHT22;6179;51.748;8.728;2023-04-28T10:18:23;13.60;95.60
12233;DHT22;6179;51.748;8.728;2023-04-28T10:24:28;13.60;97.30
12233;DHT22;6179;51.748;8.728;2023-04-28T10:30:30;13.90;95.50
12233;DHT22;6179;51.748;8.728;2023-04-28T10:36:47;14.10;94.00
12233;DHT22;6179;51.748;8.728;2023-04-28T10:42:55;14.20;92.10
12233;DHT22;6179;51.748;8.728;2023-04-28T11:01:32;14.90;90.80
12233;DHT22;6179;51.748;8.728;2023-04-28T11:07:34;15.00;91.00
12233;DHT22;6179;51.748;8.728;2023-04-28T11:13:35;15.20;90.30
12233;DHT22;6179;51.748;8.728;2023-04-28T11:19:44;15.50;89.20
12233;DHT22;6179;51.748;8.728;2023-04-28T11:25:54;15.70;89.60
12233;DHT22;6179;51.748;8.728;2023-04-28T11:31:55;15.30;90.00
12233;DHT22;6179;51.748;8.728;2023-04-28T11:38:02;15.60;89.50
12233;DHT22;6179;51.748;8.728;2023-04-28T11:44:26;15.90;88.40
12233;DHT22;6179;51.748;8.728;2023-04-28T11:50:37;16.70;87.10
12233;DHT22;6179;51.748;8.728;2023-04-28T11:56:39;16.50;85.20
12233;DHT22;6179;51.748;8.728;2023-04-28T12:02:39;16.50;87.90
12233;DHT22;6179;51.748;8.728;2023-04-28T12:08:40;16.50;85.50
12233;DHT22;6179;51.748;8.728;2023-04-28T12:20:56;16.60;85.30
12233;DHT22;6179;51.748;8.728;2023-04-28T12:27:17;16.80;88.50
12233;DHT22;6179;51.748;8.728;2023-04-28T12:33:24;17.00;87.40
12233;DHT22;6179;51.748;8.728;2023-04-28T12:39:26;17.20;84.90
12233;DHT22;6179;51.748;8.728;2023-04-28T12:45:27;17.30;85.60
12233;DHT22;6179;51.748;8.728;2023-04-28T12:51:29;17.10;87.30
12233;DHT22;6179;51.748;8.728;2023-04-28T12:57:30;17.30;86.00
12233;DHT22;6179;51.748;8.728;2023-04-28T13:03:31;17.10;85.40
12233;DHT22;6179;51.748;8.728;2023-04-28T13:09:31;17.10;87.40
12233;DHT22;6179;51.748;8.728;2023-04-28T13:15:32;17.20;86.20
12233;DHT22;6179;51.748;8.728;2023-04-28T13:21:33;17.00;86.20
12233;DHT22;6179;51.748;8.728;2023-04-28T13:27:34;17.20;87.10
12233;DHT22;6179;51.748;8.728;2023-04-28T13:33:35;17.00;87.90
12233;DHT22;6179;51.748;8.728;2023-04-28T13:39:36;17.00;88.70
12233;DHT22;6179;51.748;8.728;2023-04-28T13:45:36;17.20;88.50
12233;DHT22;6179;51.748;8.728;2023-04-28T13:51:37;17.00;88.00
12233;DHT22;6179;51.748;8.728;2023-04-28T13:57:38;16.90;87.60
12233;DHT22;6179;51.748;8.728;2023-04-28T14:03:39;16.50;89.30
12233;DHT22;6179;51.748;8.728;2023-04-28T14:09:40;16.40;90.30
12233;DHT22;6179;51.748;8.728;2023-04-28T14:15:41;16.10;91.80
12233;DHT22;6179;51.748;8.728;2023-04-28T14:21:42;16.00;92.30
12233;DHT22;6179;51.748;8.728;2023-04-28T14:27:43;15.50;94.50
12233;DHT22;6179;51.748;8.728;2023-04-28T14:33:44;15.90;94.50
12233;DHT22;6179;51.748;8.728;2023-04-28T14:39:45;15.90;96.50
12233;DHT22;6179;51.748;8.728;2023-04-28T14:45:45;15.80;98.30
12233;DHT22;6179;51.748;8.728;2023-04-28T14:51:48;15.50;98.30
12233;DHT22;6179;51.748;8.728;2023-04-28T14:57:49;14.70;98.30
12233;DHT22;6179;51.748;8.728;2023-04-28T15:03:49;14.70;98.30
12233;DHT22;6179;51.748;8.728;2023-04-28T15:09:50;15.20;98.30
12233;DHT22;6179;51.748;8.728;2023-04-28T15:15:50;15.10;98.30
12233;DHT22;6179;51.748;8.728;2023-04-28T15:21:51;15.70;98.30
12233;DHT22;6179;51.748;8.728;2023-04-28T15:27:52;16.40;98.30
12233;DHT22;6179;51.748;8.728;2023-04-28T15:33:53;16.70;98.30
12233;DHT22;6179;51.748;8.728;2023-04-28T15:39:53;16.90;98.30
12233;DHT22;6179;51.748;8.728;2023-04-28T15:45:54;17.30;98.30
12233;DHT22;6179;51.748;8.728;2023-04-28T15:51:55;17.00;98.30
12233;DHT22;6179;51.748;8.728;2023-04-28T15:57:55;16.70;98.30
12233;DHT22;6179;51.748;8.728;2023-04-28T16:03:57;16.70;98.30
12233;DHT22;6179;51.748;8.728;2023-04-28T16:15:58;16.70;98.30
12233;DHT22;6179;51.748;8.728;2023-04-28T16:21:59;16.70;98.30
12233;DHT22;6179;51.748;8.728;2023-04-28T16:28:00;17.10;98.30
12233;DHT22;6179;51.748;8.728;2023-04-28T16:34:01;17.40;97.60
12233;DHT22;6179;51.748;8.728;2023-04-28T16:40:02;16.70;98.30
12233;DHT22;6179;51.748;8.728;2023-04-28T16:46:03;17.00;98.30
12233;DHT22;6179;51.748;8.728;2023-04-28T16:52:04;17.70;96.40
12233;DHT22;6179;51.748;8.728;2023-04-28T16:58:05;17.40;97.10
12233;DHT22;6179;51.748;8.728;2023-04-28T17:04:06;17.10;97.60
12233;DHT22;6179;51.748;8.728;2023-04-28T17:10:07;17.00;98.10
12233;DHT22;6179;51.748;8.728;2023-04-28T17:16:07;17.20;98.00
12233;DHT22;6179;51.748;8.728;2023-04-28T17:22:11;17.10;97.50
12233;DHT22;6179;51.748;8.728;2023-04-28T17:28:11;17.00;98.30
12233;DHT22;6179;51.748;8.728;2023-04-28T17:34:12;17.30;97.40
12233;DHT22;6179;51.748;8.728;2023-04-28T17:40:13;17.40;96.70
12233;DHT22;6179;51.748;8.728;2023-04-28T17:46:13;17.30;96.90
12233;DHT22;6179;51.748;8.728;2023-04-28T17:52:15;17.30;96.80
12233;DHT22;6179;51.748;8.728;2023-04-28T17:58:16;17.30;96.90
12233;DHT22;6179;51.748;8.728;2023-04-28T18:04:17;17.30;96.60
12233;DHT22;6179;51.748;8.728;2023-04-28T18:10:18;17.40;96.20
12233;DHT22;6179;51.748;8.728;2023-04-28T18:16:19;17.00;96.80
12233;DHT22;6179;51.748;8.728;2023-04-28T18:22:20;16.30;97.40
12233;DHT22;6179;51.748;8.728;2023-04-28T18:28:20;16.10;97.90
12233;DHT22;6179;51.748;8.728;2023-04-28T18:34:21;15.80;98.30
12233;DHT22;6179;51.748;8.728;2023-04-28T18:40:22;15.60;98.30
12233;DHT22;6179;51.748;8.728;2023-04-28T18:46:25;15.50;98.30
12233;DHT22;6179;51.748;8.728;2023-04-28T18:52:26;15.00;98.30
12233;DHT22;6179;51.748;8.728;2023-04-28T18:58:27;14.90;98.30
12233;DHT22;6179;51.748;8.728;2023-04-28T19:04:27;14.80;98.30
12233;DHT22;6179;51.748;8.728;2023-04-28T19:10:56;14.50;98.30
12233;DHT22;6179;51.748;8.728;2023-04-28T19:16:56;14.80;98.30
12233;DHT22;6179;51.748;8.728;2023-04-28T19:22:57;14.60;98.30
12233;DHT22;6179;51.748;8.728;2023-04-28T19:29:00;14.50;98.30
12233;DHT22;6179;51.748;8.728;2023-04-28T19:35:02;14.50;98.30
12233;DHT22;6179;51.748;8.728;2023-04-28T19:41:03;14.50;98.30
12233;DHT22;6179;51.748;8.728;2023-04-28T19:47:04;14.60;98.30
12233;DHT22;6179;51.748;8.728;2023-04-28T19:53:06;14.50;98.30
12233;DHT22;6179;51.748;8.728;2023-04-28T19:59:07;14.50;98.30
12233;DHT22;6179;51.748;8.728;2023-04-28T20:05:08;14.50;98.30
12233;DHT22;6179;51.748;8.728;2023-04-28T20:11:08;14.40;98.30
12233;DHT22;6179;51.748;8.728;2023-04-28T20:17:09;14.40;98.30
12233;DHT22;6179;51.748;8.728;2023-04-28T20:23:10;14.20;98.30
12233;DHT22;6179;51.748;8.728;2023-04-28T20:29:11;14.10;98.30
12233;DHT22;6179;51.748;8.728;2023-04-28T20:35:12;14.20;98.30
12233;DHT22;6179;51.748;8.728;2023-04-28T20:41:12;14.00;98.30
12233;DHT22;6179;51.748;8.728;2023-04-28T20:47:13;14.10;98.30
12233;DHT22;6179;51.748;8.728;2023-04-28T20:53:14;13.90;98.30
12233;DHT22;6179;51.748;8.728;2023-04-28T20:59:14;13.80;98.30
12233;DHT22;6179;51.748;8.728;2023-04-28T21:05:15;14.10;98.30
12233;DHT22;6179;51.748;8.728;2023-04-28T21:11:17;14.20;98.30
12233;DHT22;6179;51.748;8.728;2023-04-28T21:17:17;13.90;98.30
12233;DHT22;6179;51.748;8.728;2023-04-28T21:23:18;14.00;98.30
12233;DHT22;6179;51.748;8.728;2023-04-28T21:29:18;13.70;98.30
12233;DHT22;6179;51.748;8.728;2023-04-28T21:35:19;13.80;98.30
12233;DHT22;6179;51.748;8.728;2023-04-28T21:41:20;14.10;98.30
12233;DHT22;6179;51.748;8.728;2023-04-28T21:47:21;13.80;98.30
12233;DHT22;6179;51.748;8.728;2023-04-28T21:53:21;14.10;98.30
12233;DHT22;6179;51.748;8.728;2023-04-28T21:59:22;14.10;98.30
12233;DHT22;6179;51.748;8.728;2023-04-28T22:05:22;13.70;98.30
12233;DHT22;6179;51.748;8.728;2023-04-28T22:11:24;13.70;98.30
12233;DHT22;6179;51.748;8.728;2023-04-28T22:17:25;13.90;98.30
12233;DHT22;6179;51.748;8.728;2023-04-28T22:23:26;14.00;98.30
12233;DHT22;6179;51.748;8.728;2023-04-28T22:29:27;14.10;98.30
12233;DHT22;6179;51.748;8.728;2023-04-28T22:35:28;14.20;98.30
12233;DHT22;6179;51.748;8.728;2023-04-28T22:41:28;13.70;98.30
12233;DHT22;6179;51.748;8.728;2023-04-28T22:47:29;13.60;98.30
12233;DHT22;6179;51.748;8.728;2023-04-28T22:53:29;13.60;98.30
12233;DHT22;6179;51.748;8.728;2023-04-28T22:59:31;13.70;98.30
12233;DHT22;6179;51.748;8.728;2023-04-28T23:05:36;13.50;98.30
12233;DHT22;6179;51.748;8.728;2023-04-28T23:11:37;13.40;98.30
12233;DHT22;6179;51.748;8.728;2023-04-28T23:17:37;13.50;98.30
12233;DHT22;6179;51.748;8.728;2023-04-28T23:23:38;13.80;98.30
12233;DHT22;6179;51.748;8.728;2023-04-28T23:29:39;13.90;98.30
12233;DHT22;6179;51.748;8.728;2023-04-28T23:35:39;13.70;98.30
12233;DHT22;6179;51.748;8.728;2023-04-28T23:41:41;13.40;98.30
12233;DHT22;6179;51.748;8.728;2023-04-28T23:47:42;13.60;98.30
12233;DHT22;6179;51.748;8.728;2023-04-28T23:53:42;13.10;98.30
12233;DHT22;6179;51.748;8.728;2023-04-28T23:59:43;13.30;98.30
